createdAt,value
2023-01-29T00:01:44.422Z,6.32
2023-01-29T00:04:10.977Z,8.52
2023-01-29T00:06:37.856Z,5.90
2023-01-29T00:09:04.462Z,5.75
2023-01-29T00:11:31.957Z,6.53
2023-01-29T00:13:58.597Z,6.65
2023-01-29T00:16:25.143Z,5.82
2023-01-29T00:18:51.736Z,7.43
2023-01-29T00:21:20.198Z,5.82
2023-01-29T00:23:47.164Z,5.95
2023-01-29T00:26:14.447Z,8.45
2023-01-29T00:28:41.022Z,7.60
2023-01-29T00:31:08.729Z,5.93
2023-01-29T00:33:35.418Z,9.02
2023-01-29T00:36:03.937Z,7.25
2023-01-29T00:38:30.686Z,6.75
2023-01-29T00:41:15.736Z,6.95
2023-01-29T00:44:00.836Z,7.77
2023-01-29T00:46:27.427Z,9.73
2023-01-29T00:48:53.940Z,7.47
2023-01-29T00:51:20.480Z,7.63
2023-01-29T00:53:46.966Z,7.00
2023-01-29T00:56:13.490Z,7.57
2023-01-29T00:58:40.046Z,8.13
2023-01-29T01:01:06.671Z,8.35
2023-01-29T01:03:35.414Z,6.85
2023-01-29T01:06:07.097Z,9.65
2023-01-29T01:08:52.304Z,8.73
2023-01-29T01:11:18.969Z,8.07
2023-01-29T01:13:46.036Z,7.38
2023-01-29T01:16:14.348Z,7.55
2023-01-29T01:18:42.700Z,7.55
2023-01-29T01:21:09.216Z,5.73
2023-01-29T01:23:35.897Z,7.63
2023-01-29T01:26:02.680Z,10.32
2023-01-29T01:28:29.332Z,7.53
2023-01-29T01:30:56.013Z,5.75
2023-01-29T01:33:22.623Z,7.93
2023-01-29T01:35:49.142Z,10.88
2023-01-29T01:38:15.659Z,8.90
2023-01-29T01:40:45.546Z,8.82
2023-01-29T01:43:12.207Z,8.32
2023-01-29T01:45:38.859Z,10.67
2023-01-29T01:48:25.822Z,9.43
2023-01-29T01:50:52.307Z,8.95
2023-01-29T01:53:29.508Z,13.45
2023-01-29T01:56:04.021Z,7.65
2023-01-29T01:58:35.901Z,11.23
2023-01-29T02:01:04.864Z,9.23
2023-01-29T02:03:54.554Z,5.13
2023-01-29T02:06:39.634Z,7.30
2023-01-29T02:09:34.411Z,10.68
2023-01-29T02:12:12.174Z,6.13
2023-01-29T02:14:40.757Z,8.88
2023-01-29T02:17:18.984Z,11.48
2023-01-29T02:20:01.345Z,10.43
2023-01-29T02:22:29.199Z,11.93
2023-01-29T02:25:17.487Z,8.83
2023-01-29T02:28:21.694Z,7.18
2023-01-29T02:31:35.263Z,10.50
2023-01-29T02:34:12.093Z,8.55
2023-01-29T02:36:45.864Z,8.85
2023-01-29T02:39:23.533Z,6.30
2023-01-29T02:42:11.816Z,4.25
2023-01-29T02:44:42.592Z,9.05
2023-01-29T02:47:22.787Z,9.77
2023-01-29T02:49:54.215Z,5.78
2023-01-29T02:52:28.071Z,7.87
2023-01-29T02:54:56.687Z,10.60
2023-01-29T02:57:29.847Z,10.00
2023-01-29T03:00:02.850Z,7.22
2023-01-29T03:02:33.744Z,8.93
2023-01-29T03:05:03.346Z,8.43
2023-01-29T03:07:42.516Z,6.53
2023-01-29T03:10:18.492Z,8.60
2023-01-29T03:12:50.141Z,7.18
2023-01-29T03:15:25.046Z,8.05
2023-01-29T03:18:08.517Z,8.07
2023-01-29T03:20:38.703Z,9.18
2023-01-29T03:23:10.537Z,7.50
2023-01-29T03:25:57.479Z,7.22
2023-01-29T03:28:42.896Z,7.65
2023-01-29T03:31:31.044Z,8.00
2023-01-29T03:34:07.391Z,5.93
2023-01-29T03:36:45.246Z,8.80
2023-01-29T03:39:12.853Z,4.45
2023-01-29T03:42:08.864Z,7.60
2023-01-29T03:44:41.218Z,4.80
2023-01-29T03:47:29.423Z,3.90
2023-01-29T03:50:10.821Z,10.10
2023-01-29T03:52:43.405Z,8.77
2023-01-29T03:55:25.354Z,8.68
2023-01-29T03:58:01.231Z,5.40
2023-01-29T04:00:36.032Z,9.82
2023-01-29T04:03:18.124Z,9.05
2023-01-29T04:06:10.535Z,11.25
2023-01-29T04:08:44.714Z,4.75
2023-01-29T04:11:14.611Z,9.87
2023-01-29T04:13:41.176Z,9.23
2023-01-29T04:16:12.529Z,7.18
2023-01-29T04:18:39.105Z,10.98
2023-01-29T04:21:07.391Z,11.30
2023-01-29T04:23:34.130Z,10.23
2023-01-29T04:26:21.676Z,8.77
2023-01-29T04:29:10.323Z,10.90
2023-01-29T04:31:49.076Z,10.45
2023-01-29T04:34:27.969Z,10.27
2023-01-29T04:37:13.395Z,14.40
2023-01-29T04:39:45.834Z,11.60
2023-01-29T04:42:21.523Z,11.95
2023-01-29T04:45:08.511Z,11.10
2023-01-29T04:47:40.040Z,8.95
2023-01-29T04:50:34.656Z,9.37
2023-01-29T04:53:15.751Z,8.60
2023-01-29T04:55:49.667Z,11.98
2023-01-29T04:58:35.698Z,11.07
2023-01-29T05:01:05.293Z,13.57
2023-01-29T05:03:33.125Z,12.93
2023-01-29T05:06:00.792Z,9.32
2023-01-29T05:08:29.235Z,11.30
2023-01-29T05:10:57.671Z,7.93
2023-01-29T05:13:25.918Z,5.75
2023-01-29T05:15:55.485Z,12.60
2023-01-29T05:18:22.181Z,11.43
2023-01-29T05:20:49.386Z,10.32
2023-01-29T05:23:17.763Z,10.63
2023-01-29T05:25:45.516Z,10.63
2023-01-29T05:28:16.470Z,8.70
2023-01-29T05:30:45.749Z,8.55
2023-01-29T05:33:17.923Z,6.95
2023-01-29T05:35:44.452Z,9.23
2023-01-29T05:38:11.080Z,7.63
2023-01-29T05:40:38.419Z,9.07
2023-01-29T05:43:05.791Z,6.93
2023-01-29T05:45:33.000Z,6.18
2023-01-29T05:48:00.365Z,7.82
2023-01-29T05:50:27.766Z,9.02
2023-01-29T05:53:01.328Z,7.40
2023-01-29T05:55:31.626Z,7.25
2023-01-29T05:57:58.197Z,8.20
2023-01-29T06:00:24.912Z,7.65
2023-01-29T06:02:51.581Z,9.00
2023-01-29T06:05:18.140Z,9.83
2023-01-29T06:07:45.480Z,9.38
2023-01-29T06:10:14.837Z,8.82
2023-01-29T06:12:42.931Z,9.82
2023-01-29T06:15:10.271Z,10.88
2023-01-29T06:17:37.024Z,9.97
2023-01-29T06:20:05.227Z,8.63
2023-01-29T06:22:32.999Z,9.73
2023-01-29T06:24:59.517Z,11.57
2023-01-29T06:27:26.071Z,9.77
2023-01-29T06:29:52.569Z,11.13
2023-01-29T06:32:19.147Z,9.18
2023-01-29T06:34:47.899Z,12.15
2023-01-29T06:37:15.184Z,12.45
2023-01-29T06:39:41.794Z,11.75
2023-01-29T06:42:08.577Z,13.03
2023-01-29T06:44:35.078Z,13.73
2023-01-29T06:47:01.612Z,14.40
2023-01-29T06:49:28.110Z,14.65
2023-01-29T06:51:54.708Z,14.35
2023-01-29T06:54:21.225Z,14.87
2023-01-29T06:56:47.761Z,13.63
2023-01-29T06:59:14.415Z,12.20
2023-01-29T07:01:42.278Z,12.82
2023-01-29T07:04:08.883Z,15.43
2023-01-29T07:06:35.472Z,16.03
2023-01-29T07:09:03.113Z,12.70
2023-01-29T07:11:29.668Z,15.23
2023-01-29T07:13:56.308Z,13.20
2023-01-29T07:16:23.446Z,13.52
2023-01-29T07:18:50.048Z,9.17
2023-01-29T07:21:16.616Z,16.42
2023-01-29T07:23:43.168Z,11.55
2023-01-29T07:26:10.554Z,14.57
2023-01-29T07:28:38.137Z,16.25
2023-01-29T07:31:05.345Z,15.60
2023-01-29T07:33:32.089Z,12.93
2023-01-29T07:35:58.763Z,14.38
2023-01-29T07:38:25.285Z,11.88
2023-01-29T07:40:52.613Z,15.93
2023-01-29T07:43:19.199Z,13.77
2023-01-29T07:45:45.785Z,13.20
2023-01-29T07:48:13.213Z,11.57
2023-01-29T07:50:40.246Z,12.60
2023-01-29T07:53:06.875Z,14.73
2023-01-29T07:55:33.668Z,11.77
2023-01-29T07:58:02.450Z,14.75
2023-01-29T08:00:31.011Z,10.65
2023-01-29T08:03:05.413Z,12.00
2023-01-29T08:05:33.656Z,11.15
2023-01-29T08:08:07.002Z,12.97
2023-01-29T08:10:38.874Z,9.77
2023-01-29T08:13:06.469Z,9.57
2023-01-29T08:15:33.382Z,16.45
2023-01-29T08:18:01.874Z,12.98
2023-01-29T08:20:28.571Z,9.43
2023-01-29T08:23:05.973Z,11.70
2023-01-29T08:25:33.013Z,11.13
2023-01-29T08:28:00.464Z,9.68
2023-01-29T08:30:29.969Z,10.35
2023-01-29T08:32:56.538Z,10.17
2023-01-29T08:35:23.354Z,9.63
2023-01-29T08:37:59.365Z,9.48
2023-01-29T08:40:26.999Z,10.68
2023-01-29T08:43:13.630Z,11.80
2023-01-29T08:45:42.337Z,9.33
2023-01-29T08:48:09.107Z,11.55
2023-01-29T08:50:36.063Z,14.23
2023-01-29T08:53:05.355Z,9.57
2023-01-29T08:55:31.862Z,13.43
2023-01-29T08:57:58.491Z,12.30
2023-01-29T09:00:25.222Z,8.77
2023-01-29T09:02:51.851Z,7.90
2023-01-29T09:05:18.874Z,8.52
2023-01-29T09:07:45.659Z,9.35
2023-01-29T09:10:12.431Z,11.03
2023-01-29T09:12:39.124Z,9.82
2023-01-29T09:15:06.201Z,8.82
2023-01-29T09:17:32.708Z,12.25
2023-01-29T09:19:59.276Z,10.13
2023-01-29T09:22:25.815Z,10.47
2023-01-29T09:24:52.362Z,8.23
2023-01-29T09:27:18.911Z,10.10
2023-01-29T09:29:45.431Z,8.80
2023-01-29T09:32:11.971Z,8.82
2023-01-29T09:34:46.054Z,8.87
2023-01-29T09:37:12.564Z,10.02
2023-01-29T09:39:39.184Z,9.35
2023-01-29T09:42:13.908Z,8.43
2023-01-29T09:45:01.197Z,8.38
2023-01-29T09:47:28.179Z,8.90
2023-01-29T09:50:05.741Z,8.85
2023-01-29T09:53:04.331Z,6.65
2023-01-29T09:55:44.039Z,8.50
2023-01-29T09:58:28.776Z,7.25
2023-01-29T10:01:25.990Z,5.53
2023-01-29T10:04:27.616Z,5.20
2023-01-29T10:07:06.022Z,8.18
2023-01-29T10:09:51.196Z,6.43
2023-01-29T10:12:36.051Z,6.70
2023-01-29T10:15:20.892Z,5.07
2023-01-29T10:17:56.732Z,6.20
2023-01-29T10:20:47.584Z,5.68
2023-01-29T10:23:22.556Z,5.25
2023-01-29T10:25:49.824Z,7.07
2023-01-29T10:28:31.958Z,7.13
2023-01-29T10:31:02.806Z,5.47
2023-01-29T10:34:02.501Z,6.30
2023-01-29T10:36:36.400Z,5.45
2023-01-29T10:39:03.131Z,5.68
2023-01-29T10:41:32.722Z,6.17
2023-01-29T10:44:12.525Z,6.93
2023-01-29T10:46:57.543Z,7.15
2023-01-29T10:50:09.196Z,5.30
2023-01-29T10:53:02.970Z,6.18
2023-01-29T10:56:23.009Z,5.53
2023-01-29T10:59:05.471Z,6.15
2023-01-29T11:01:32.200Z,5.72
2023-01-29T11:04:04.662Z,6.18
2023-01-29T11:06:34.760Z,5.47
2023-01-29T11:09:11.617Z,4.97
2023-01-29T11:11:45.220Z,4.40
2023-01-29T11:14:27.463Z,5.88
2023-01-29T11:16:54.278Z,4.60
2023-01-29T11:19:40.241Z,4.70
2023-01-29T11:22:13.631Z,4.87
2023-01-29T11:24:40.124Z,5.75
2023-01-29T11:27:16.268Z,8.57
2023-01-29T11:29:48.147Z,5.80
2023-01-29T11:32:23.923Z,7.00
2023-01-29T11:35:20.687Z,6.87
2023-01-29T11:37:47.595Z,7.45
2023-01-29T11:40:20.009Z,5.13
2023-01-29T11:42:47.128Z,4.55
2023-01-29T11:45:32.173Z,6.60
2023-01-29T11:47:59.503Z,7.20
2023-01-29T11:50:28.371Z,6.43
2023-01-29T11:52:55.132Z,5.95
2023-01-29T11:55:40.999Z,5.15
2023-01-29T11:58:27.561Z,5.28
2023-01-29T12:00:55.536Z,9.03
2023-01-29T12:03:35.705Z,8.45
2023-01-29T12:06:18.568Z,6.93
2023-01-29T12:08:45.300Z,7.03
2023-01-29T12:11:25.035Z,8.57
2023-01-29T12:13:56.335Z,6.47
2023-01-29T12:16:27.983Z,5.60
2023-01-29T12:18:58.451Z,8.38
2023-01-29T12:21:51.571Z,6.85
2023-01-29T12:24:39.160Z,7.75
2023-01-29T12:27:59.885Z,5.77
2023-01-29T12:30:30.590Z,6.72
2023-01-29T12:33:27.099Z,4.13
2023-01-29T12:35:59.836Z,6.75
2023-01-29T12:38:26.751Z,6.40
2023-01-29T12:40:57.136Z,8.67
2023-01-29T12:43:41.430Z,6.45
2023-01-29T12:46:14.921Z,6.63
2023-01-29T12:48:43.027Z,6.50
2023-01-29T12:51:14.702Z,6.45
2023-01-29T12:53:50.498Z,7.33
2023-01-29T12:56:22.775Z,5.07
2023-01-29T12:58:52.034Z,6.22
2023-01-29T13:01:38.608Z,8.27
2023-01-29T13:04:09.748Z,7.35
2023-01-29T13:07:00.380Z,5.50
2023-01-29T13:09:29.002Z,4.70
2023-01-29T13:12:12.453Z,7.00
2023-01-29T13:15:01.584Z,4.53
2023-01-29T13:17:36.964Z,7.28
2023-01-29T13:20:19.184Z,6.53
2023-01-29T13:22:46.618Z,6.07
2023-01-29T13:25:17.875Z,7.18
2023-01-29T13:27:47.755Z,7.07
2023-01-29T13:30:29.471Z,7.38
2023-01-29T13:33:09.119Z,6.83
2023-01-29T13:35:42.280Z,7.00
2023-01-29T13:38:27.535Z,6.47
2023-01-29T13:40:58.166Z,8.48
2023-01-29T13:43:24.691Z,5.80
2023-01-29T13:45:53.129Z,7.17
2023-01-29T13:48:32.382Z,7.32
2023-01-29T13:51:03.498Z,7.50
2023-01-29T13:53:36.710Z,6.22
2023-01-29T13:56:28.182Z,8.32
2023-01-29T13:58:55.878Z,7.30
2023-01-29T14:01:48.407Z,8.52
2023-01-29T14:04:28.180Z,6.05
2023-01-29T14:07:33.195Z,7.72
2023-01-29T14:10:10.477Z,6.95
2023-01-29T14:12:39.899Z,8.93
2023-01-29T14:15:22.022Z,7.70
2023-01-29T14:18:22.371Z,7.88
2023-01-29T14:20:48.897Z,7.15
2023-01-29T14:23:44.636Z,6.80
2023-01-29T14:26:32.671Z,8.17
2023-01-29T14:29:29.094Z,7.65
2023-01-29T14:32:06.217Z,5.18
2023-01-29T14:34:43.053Z,6.75
2023-01-29T14:37:15.514Z,6.90
2023-01-29T14:39:47.882Z,8.03
2023-01-29T14:42:24.271Z,8.77
2023-01-29T14:44:53.757Z,6.10
2023-01-29T14:47:38.345Z,5.53
2023-01-29T14:50:32.738Z,7.00
2023-01-29T14:53:03.290Z,5.33
2023-01-29T14:55:35.725Z,7.88
2023-01-29T14:58:03.605Z,6.13
2023-01-29T15:00:35.179Z,7.28
2023-01-29T15:03:04.387Z,6.22
2023-01-29T15:05:32.996Z,7.77
2023-01-29T15:08:18.482Z,7.15
2023-01-29T15:11:12.417Z,7.05
2023-01-29T15:13:55.798Z,8.35
2023-01-29T15:16:38.372Z,7.90
2023-01-29T15:19:21.456Z,7.93
2023-01-29T15:22:06.864Z,8.15
2023-01-29T15:24:33.728Z,5.78
2023-01-29T15:27:01.189Z,6.60
2023-01-29T15:29:28.449Z,6.15
2023-01-29T15:31:56.303Z,5.87
2023-01-29T15:34:23.092Z,6.45
2023-01-29T15:36:50.604Z,4.38
2023-01-29T15:39:24.642Z,6.15
2023-01-29T15:42:05.403Z,6.30
2023-01-29T15:44:32.069Z,6.80
2023-01-29T15:47:00.400Z,7.22
2023-01-29T15:49:31.871Z,6.38
2023-01-29T15:52:00.050Z,7.60
2023-01-29T15:54:30.711Z,5.97
2023-01-29T15:56:57.832Z,5.90
2023-01-29T15:59:31.565Z,6.07
2023-01-29T16:01:58.135Z,6.88
2023-01-29T16:04:30.994Z,4.72
2023-01-29T16:06:58.288Z,5.82
2023-01-29T16:09:26.336Z,6.20
2023-01-29T16:11:54.423Z,5.75
2023-01-29T16:14:23.259Z,5.90
2023-01-29T16:16:49.849Z,6.25
2023-01-29T16:19:25.719Z,7.35
2023-01-29T16:22:03.648Z,4.33
2023-01-29T16:24:31.495Z,6.57
2023-01-29T16:27:01.018Z,6.07
2023-01-29T16:29:32.335Z,5.85
2023-01-29T16:32:03.444Z,6.05
2023-01-29T16:34:39.011Z,6.80
2023-01-29T16:37:08.204Z,5.88
2023-01-29T16:39:38.674Z,5.68
2023-01-29T16:42:17.522Z,5.93
2023-01-29T16:44:52.256Z,5.57
2023-01-29T16:47:41.120Z,9.90
2023-01-29T16:50:54.026Z,6.47
2023-01-29T16:53:23.324Z,6.68
2023-01-29T16:55:51.228Z,7.38
2023-01-29T16:58:22.863Z,8.20
2023-01-29T17:01:05.309Z,6.77
2023-01-29T17:03:33.378Z,6.78
2023-01-29T17:06:24.457Z,7.68
2023-01-29T17:08:51.559Z,6.90
2023-01-29T17:11:34.401Z,6.65
2023-01-29T17:14:01.053Z,7.03
2023-01-29T17:16:31.762Z,7.68
2023-01-29T17:18:59.101Z,7.63
2023-01-29T17:21:26.049Z,7.38
2023-01-29T17:23:52.905Z,8.15
2023-01-29T17:26:19.867Z,7.47
2023-01-29T17:28:49.469Z,6.47
2023-01-29T17:31:16.078Z,8.27
2023-01-29T17:33:43.741Z,7.35
2023-01-29T17:36:16.227Z,7.07
2023-01-29T17:38:42.763Z,10.47
2023-01-29T17:41:17.134Z,10.18
2023-01-29T17:43:44.182Z,9.90
2023-01-29T17:46:15.375Z,10.38
2023-01-29T17:48:42.567Z,13.98
2023-01-29T17:51:11.955Z,14.77
2023-01-29T17:53:46.915Z,15.40
2023-01-29T17:56:16.870Z,14.25
2023-01-29T17:58:43.434Z,12.38
2023-01-29T18:01:10.022Z,16.35
2023-01-29T18:03:36.715Z,14.43
2023-01-29T18:06:03.357Z,15.93
2023-01-29T18:08:35.332Z,14.70
2023-01-29T18:11:01.907Z,16.02
2023-01-29T18:13:28.488Z,15.43
2023-01-29T18:15:55.126Z,16.13
2023-01-29T18:18:23.796Z,15.27
2023-01-29T18:20:50.848Z,15.05
2023-01-29T18:23:17.404Z,15.15
2023-01-29T18:25:44.806Z,16.40
2023-01-29T18:28:19.377Z,11.13
2023-01-29T18:30:47.407Z,14.50
2023-01-29T18:33:14.967Z,14.02
2023-01-29T18:35:41.517Z,12.18
2023-01-29T18:38:08.070Z,16.45
2023-01-29T18:40:34.576Z,14.80
2023-01-29T18:43:01.251Z,9.15
2023-01-29T18:45:28.644Z,11.95
2023-01-29T18:47:55.908Z,13.43
2023-01-29T18:50:26.303Z,15.48
2023-01-29T18:52:53.509Z,12.67
2023-01-29T18:55:20.276Z,12.52
2023-01-29T18:58:26.502Z,13.35
2023-01-29T19:00:33.503Z,13.55
2023-01-29T19:03:00.703Z,6.97
2023-01-29T19:05:27.225Z,11.40
2023-01-29T19:07:53.842Z,10.88
2023-01-29T19:10:20.410Z,12.55
2023-01-29T19:12:46.940Z,11.93
2023-01-29T19:15:13.545Z,12.05
2023-01-29T19:17:40.029Z,11.33
2023-01-29T19:20:07.081Z,14.05
2023-01-29T19:22:33.924Z,13.07
2023-01-29T19:25:00.517Z,14.30
2023-01-29T19:27:30.336Z,12.85
2023-01-29T19:30:00.098Z,7.60
2023-01-29T19:32:28.880Z,10.57
2023-01-29T19:34:55.412Z,13.13
2023-01-29T19:37:22.006Z,11.85
2023-01-29T19:39:48.513Z,11.00
2023-01-29T19:42:15.113Z,8.60
2023-01-29T19:44:41.765Z,6.68
2023-01-29T19:47:08.340Z,10.60
2023-01-29T19:49:34.821Z,12.43
2023-01-29T19:52:01.924Z,9.65
2023-01-29T19:54:29.529Z,12.30
2023-01-29T19:56:56.272Z,11.10
2023-01-29T19:59:22.855Z,12.68
2023-01-29T20:01:49.416Z,11.52
2023-01-29T20:04:15.997Z,10.82
2023-01-29T20:06:42.553Z,10.20
2023-01-29T20:09:09.072Z,11.50
2023-01-29T20:11:35.626Z,9.95
2023-01-29T20:14:02.453Z,9.93
2023-01-29T20:16:29.208Z,8.40
2023-01-29T20:18:55.802Z,9.80
2023-01-29T20:21:41.805Z,11.50
2023-01-29T20:24:12.319Z,11.13
2023-01-29T20:26:39.080Z,10.98
2023-01-29T20:29:06.522Z,10.02
2023-01-29T20:31:33.693Z,12.43
2023-01-29T20:34:00.442Z,9.38
2023-01-29T20:36:27.116Z,10.95
2023-01-29T20:38:53.760Z,13.35
2023-01-29T20:41:21.169Z,9.77
2023-01-29T20:43:50.132Z,10.70
2023-01-29T20:46:17.650Z,11.70
2023-01-29T20:48:44.187Z,13.73
2023-01-29T20:51:15.215Z,10.63
2023-01-29T20:53:46.030Z,9.50
2023-01-29T20:56:14.344Z,11.33
2023-01-29T20:58:41.504Z,8.52
2023-01-29T21:01:13.327Z,9.90
2023-01-29T21:03:40.169Z,11.63
2023-01-29T21:06:08.818Z,12.68
2023-01-29T21:08:36.525Z,20.47
2023-01-29T21:11:04.241Z,9.20
2023-01-29T21:13:30.901Z,9.25
2023-01-29T21:15:57.550Z,12.13
2023-01-29T21:18:26.310Z,15.45
2023-01-29T21:20:53.827Z,10.50
2023-01-29T21:23:20.510Z,14.75
2023-01-29T21:25:48.039Z,13.27
2023-01-29T21:28:15.138Z,11.45
2023-01-29T21:30:41.796Z,10.75
2023-01-29T21:33:08.370Z,12.97
2023-01-29T21:35:37.782Z,10.40
2023-01-29T21:38:04.737Z,14.55
2023-01-29T21:40:31.254Z,16.25
2023-01-29T21:43:12.909Z,14.30
2023-01-29T21:45:40.190Z,10.50
2023-01-29T21:48:06.911Z,15.52
2023-01-29T21:50:33.443Z,15.60
2023-01-29T21:53:00.040Z,16.13
2023-01-29T21:55:26.612Z,14.13
2023-01-29T21:57:53.222Z,16.93
2023-01-29T22:00:19.945Z,14.85
2023-01-29T22:02:46.764Z,16.15
2023-01-29T22:05:19.440Z,16.50
2023-01-29T22:07:47.215Z,18.55
2023-01-29T22:10:14.571Z,15.57
2023-01-29T22:12:41.353Z,16.70
2023-01-29T22:15:09.228Z,17.10
2023-01-29T22:17:35.889Z,15.75
2023-01-29T22:20:02.760Z,17.58
2023-01-29T22:22:29.274Z,13.17
2023-01-29T22:24:58.264Z,17.08
2023-01-29T22:27:25.108Z,11.07
2023-01-29T22:29:51.693Z,21.90
2023-01-29T22:32:18.312Z,18.52
2023-01-29T22:34:44.840Z,15.77
2023-01-29T22:37:11.445Z,20.63
2023-01-29T22:39:37.986Z,18.40
2023-01-29T22:42:04.697Z,19.52
2023-01-29T22:44:31.384Z,15.65
2023-01-29T22:46:57.927Z,20.10
2023-01-29T22:49:25.743Z,18.17
2023-01-29T22:52:10.089Z,15.95
2023-01-29T22:54:41.932Z,15.57
2023-01-29T22:57:12.835Z,17.27
2023-01-29T22:59:39.466Z,21.40
2023-01-29T23:02:06.946Z,18.42
2023-01-29T23:04:33.738Z,18.00
2023-01-29T23:07:00.285Z,12.55
2023-01-29T23:09:26.840Z,21.92
2023-01-29T23:11:53.410Z,20.13
2023-01-29T23:14:20.019Z,19.23
2023-01-29T23:16:46.574Z,20.13
2023-01-29T23:19:13.161Z,19.40
2023-01-29T23:21:39.928Z,18.88
2023-01-29T23:24:07.967Z,18.53
2023-01-29T23:26:53.367Z,21.50
2023-01-29T23:29:20.113Z,16.65
2023-01-29T23:31:46.797Z,18.02
2023-01-29T23:34:14.026Z,19.75
2023-01-29T23:36:41.268Z,16.47
2023-01-29T23:39:07.996Z,18.38
2023-01-29T23:41:34.564Z,20.38
2023-01-29T23:44:01.107Z,21.55
2023-01-29T23:46:27.669Z,19.58
2023-01-29T23:48:54.187Z,20.13
2023-01-29T23:51:20.827Z,17.80
2023-01-29T23:53:47.363Z,22.27
2023-01-29T23:56:13.906Z,15.93
2023-01-29T23:58:40.476Z,20.08
